sensor_id;sensor_type;location;lat;lon;timestamp;P1;durP1;ratioP1;P2;durP2;ratioP2
21927;SDS011;11128;51.096;17.190;2023-06-22T00:01:59;14.63;;;10.43;;
21927;SDS011;11128;51.096;17.190;2023-06-22T00:07:01;12.02;;;9.48;;
21927;SDS011;11128;51.096;17.190;2023-06-22T00:12:02;13.48;;;10.18;;
21927;SDS011;11128;51.096;17.190;2023-06-22T00:17:04;15.48;;;10.65;;
21927;SDS011;11128;51.096;17.190;2023-06-22T00:22:05;16.35;;;11.50;;
21927;SDS011;11128;51.096;17.190;2023-06-22T00:27:07;16.05;;;10.50;;
21927;SDS011;11128;51.096;17.190;2023-06-22T00:32:08;16.08;;;11.23;;
21927;SDS011;11128;51.096;17.190;2023-06-22T00:37:09;16.33;;;10.30;;
21927;SDS011;11128;51.096;17.190;2023-06-22T00:42:12;14.25;;;9.82;;
21927;SDS011;11128;51.096;17.190;2023-06-22T00:47:17;15.75;;;10.55;;
21927;SDS011;11128;51.096;17.190;2023-06-22T00:52:20;14.65;;;10.45;;
21927;SDS011;11128;51.096;17.190;2023-06-22T00:57:27;14.07;;;9.82;;
21927;SDS011;11128;51.096;17.190;2023-06-22T01:02:29;14.18;;;10.45;;
21927;SDS011;11128;51.096;17.190;2023-06-22T01:12:44;16.05;;;10.80;;
21927;SDS011;11128;51.096;17.190;2023-06-22T01:17:49;16.27;;;11.50;;
21927;SDS011;11128;51.096;17.190;2023-06-22T01:28:17;13.60;;;9.68;;
21927;SDS011;11128;51.096;17.190;2023-06-22T01:33:25;14.68;;;10.10;;
21927;SDS011;11128;51.096;17.190;2023-06-22T01:38:26;15.80;;;10.07;;
21927;SDS011;11128;51.096;17.190;2023-06-22T01:43:30;14.93;;;10.30;;
21927;SDS011;11128;51.096;17.190;2023-06-22T01:48:32;15.38;;;10.30;;
21927;SDS011;11128;51.096;17.190;2023-06-22T01:53:34;17.17;;;10.50;;
21927;SDS011;11128;51.096;17.190;2023-06-22T01:58:36;13.35;;;9.85;;
21927;SDS011;11128;51.096;17.190;2023-06-22T02:03:47;15.53;;;10.90;;
21927;SDS011;11128;51.096;17.190;2023-06-22T02:09:12;15.05;;;10.73;;
21927;SDS011;11128;51.096;17.190;2023-06-22T02:14:17;16.02;;;10.85;;
21927;SDS011;11128;51.096;17.190;2023-06-22T02:19:23;14.25;;;10.50;;
21927;SDS011;11128;51.096;17.190;2023-06-22T02:24:25;15.00;;;10.15;;
21927;SDS011;11128;51.096;17.190;2023-06-22T02:29:27;18.08;;;10.25;;
21927;SDS011;11128;51.096;17.190;2023-06-22T02:34:29;17.10;;;10.93;;
21927;SDS011;11128;51.096;17.190;2023-06-22T02:39:30;19.23;;;11.35;;
21927;SDS011;11128;51.096;17.190;2023-06-22T02:44:32;15.68;;;10.80;;
21927;SDS011;11128;51.096;17.190;2023-06-22T02:49:33;18.83;;;11.23;;
21927;SDS011;11128;51.096;17.190;2023-06-22T02:54:35;19.33;;;11.32;;
21927;SDS011;11128;51.096;17.190;2023-06-22T02:59:37;19.02;;;10.68;;
21927;SDS011;11128;51.096;17.190;2023-06-22T03:04:41;16.23;;;10.32;;
21927;SDS011;11128;51.096;17.190;2023-06-22T03:09:43;16.38;;;11.20;;
21927;SDS011;11128;51.096;17.190;2023-06-22T03:14:45;15.38;;;10.13;;
21927;SDS011;11128;51.096;17.190;2023-06-22T03:19:46;16.65;;;10.63;;
21927;SDS011;11128;51.096;17.190;2023-06-22T03:24:48;15.43;;;10.45;;
21927;SDS011;11128;51.096;17.190;2023-06-22T03:29:49;13.68;;;10.32;;
21927;SDS011;11128;51.096;17.190;2023-06-22T03:34:51;16.13;;;10.52;;
21927;SDS011;11128;51.096;17.190;2023-06-22T03:39:52;15.65;;;10.20;;
21927;SDS011;11128;51.096;17.190;2023-06-22T03:44:54;15.20;;;9.95;;
21927;SDS011;11128;51.096;17.190;2023-06-22T03:49:55;14.77;;;10.25;;
21927;SDS011;11128;51.096;17.190;2023-06-22T03:54:57;16.30;;;10.05;;
21927;SDS011;11128;51.096;17.190;2023-06-22T03:59:59;15.30;;;10.68;;
21927;SDS011;11128;51.096;17.190;2023-06-22T04:05:00;15.35;;;10.00;;
21927;SDS011;11128;51.096;17.190;2023-06-22T04:10:03;18.42;;;10.63;;
21927;SDS011;11128;51.096;17.190;2023-06-22T04:15:05;16.60;;;9.85;;
21927;SDS011;11128;51.096;17.190;2023-06-22T04:20:07;16.45;;;11.75;;
21927;SDS011;11128;51.096;17.190;2023-06-22T04:25:09;18.05;;;12.13;;
21927;SDS011;11128;51.096;17.190;2023-06-22T04:30:10;16.73;;;11.45;;
21927;SDS011;11128;51.096;17.190;2023-06-22T04:35:13;19.38;;;12.05;;
21927;SDS011;11128;51.096;17.190;2023-06-22T04:40:16;15.32;;;11.63;;
21927;SDS011;11128;51.096;17.190;2023-06-22T04:45:18;20.75;;;13.10;;
21927;SDS011;11128;51.096;17.190;2023-06-22T04:50:20;21.90;;;13.02;;
21927;SDS011;11128;51.096;17.190;2023-06-22T04:55:23;24.40;;;14.32;;
21927;SDS011;11128;51.096;17.190;2023-06-22T05:00:26;20.35;;;13.45;;
21927;SDS011;11128;51.096;17.190;2023-06-22T05:05:29;26.73;;;15.75;;
21927;SDS011;11128;51.096;17.190;2023-06-22T05:10:31;22.42;;;14.80;;
21927;SDS011;11128;51.096;17.190;2023-06-22T05:15:32;18.98;;;12.90;;
21927;SDS011;11128;51.096;17.190;2023-06-22T05:20:37;23.30;;;15.60;;
21927;SDS011;11128;51.096;17.190;2023-06-22T05:25:39;20.80;;;14.10;;
21927;SDS011;11128;51.096;17.190;2023-06-22T05:30:43;22.63;;;16.27;;
21927;SDS011;11128;51.096;17.190;2023-06-22T05:35:44;22.75;;;13.98;;
21927;SDS011;11128;51.096;17.190;2023-06-22T05:40:45;19.75;;;12.45;;
21927;SDS011;11128;51.096;17.190;2023-06-22T05:45:47;17.27;;;11.98;;
21927;SDS011;11128;51.096;17.190;2023-06-22T05:50:48;17.27;;;10.80;;
21927;SDS011;11128;51.096;17.190;2023-06-22T05:55:50;16.50;;;11.07;;
21927;SDS011;11128;51.096;17.190;2023-06-22T06:00:51;14.32;;;9.88;;
21927;SDS011;11128;51.096;17.190;2023-06-22T06:05:52;17.33;;;11.00;;
21927;SDS011;11128;51.096;17.190;2023-06-22T06:10:53;16.20;;;10.60;;
21927;SDS011;11128;51.096;17.190;2023-06-22T06:15:55;18.40;;;11.25;;
21927;SDS011;11128;51.096;17.190;2023-06-22T06:20:57;15.10;;;10.38;;
21927;SDS011;11128;51.096;17.190;2023-06-22T06:25:59;14.85;;;10.75;;
21927;SDS011;11128;51.096;17.190;2023-06-22T06:31:00;14.80;;;10.80;;
21927;SDS011;11128;51.096;17.190;2023-06-22T06:36:02;15.73;;;10.73;;
21927;SDS011;11128;51.096;17.190;2023-06-22T06:41:03;14.82;;;10.65;;
21927;SDS011;11128;51.096;17.190;2023-06-22T06:46:05;15.07;;;10.23;;
21927;SDS011;11128;51.096;17.190;2023-06-22T06:51:06;13.50;;;9.93;;
21927;SDS011;11128;51.096;17.190;2023-06-22T06:56:11;16.15;;;11.13;;
21927;SDS011;11128;51.096;17.190;2023-06-22T07:01:12;16.23;;;10.85;;
21927;SDS011;11128;51.096;17.190;2023-06-22T07:06:14;16.00;;;11.05;;
21927;SDS011;11128;51.096;17.190;2023-06-22T07:11:16;14.65;;;10.70;;
21927;SDS011;11128;51.096;17.190;2023-06-22T07:16:18;13.45;;;9.75;;
21927;SDS011;11128;51.096;17.190;2023-06-22T07:21:19;14.98;;;10.27;;
21927;SDS011;11128;51.096;17.190;2023-06-22T07:26:20;14.38;;;10.10;;
21927;SDS011;11128;51.096;17.190;2023-06-22T07:31:23;15.48;;;9.48;;
21927;SDS011;11128;51.096;17.190;2023-06-22T07:36:27;13.75;;;9.63;;
21927;SDS011;11128;51.096;17.190;2023-06-22T07:41:30;12.15;;;8.93;;
21927;SDS011;11128;51.096;17.190;2023-06-22T07:46:32;12.35;;;8.98;;
21927;SDS011;11128;51.096;17.190;2023-06-22T07:51:34;14.05;;;9.00;;
21927;SDS011;11128;51.096;17.190;2023-06-22T07:56:36;11.00;;;8.65;;
21927;SDS011;11128;51.096;17.190;2023-06-22T08:01:38;12.32;;;8.40;;
21927;SDS011;11128;51.096;17.190;2023-06-22T08:06:39;11.73;;;8.73;;
21927;SDS011;11128;51.096;17.190;2023-06-22T08:11:42;13.10;;;9.63;;
21927;SDS011;11128;51.096;17.190;2023-06-22T08:16:43;13.88;;;8.52;;
21927;SDS011;11128;51.096;17.190;2023-06-22T08:21:44;12.15;;;8.48;;
21927;SDS011;11128;51.096;17.190;2023-06-22T08:26:46;11.13;;;8.68;;
21927;SDS011;11128;51.096;17.190;2023-06-22T08:31:47;10.20;;;8.43;;
21927;SDS011;11128;51.096;17.190;2023-06-22T08:36:48;11.95;;;8.98;;
21927;SDS011;11128;51.096;17.190;2023-06-22T08:41:52;13.85;;;8.68;;
21927;SDS011;11128;51.096;17.190;2023-06-22T08:46:54;10.63;;;8.40;;
21927;SDS011;11128;51.096;17.190;2023-06-22T08:51:55;11.82;;;8.70;;
21927;SDS011;11128;51.096;17.190;2023-06-22T08:56:57;11.88;;;7.38;;
21927;SDS011;11128;51.096;17.190;2023-06-22T09:01:58;9.85;;;7.43;;
21927;SDS011;11128;51.096;17.190;2023-06-22T09:07:02;9.30;;;7.43;;
21927;SDS011;11128;51.096;17.190;2023-06-22T09:12:04;9.57;;;7.50;;
21927;SDS011;11128;51.096;17.190;2023-06-22T09:17:06;8.13;;;6.80;;
21927;SDS011;11128;51.096;17.190;2023-06-22T09:22:07;7.93;;;6.32;;
21927;SDS011;11128;51.096;17.190;2023-06-22T09:27:08;7.97;;;6.10;;
21927;SDS011;11128;51.096;17.190;2023-06-22T09:32:10;8.15;;;6.55;;
21927;SDS011;11128;51.096;17.190;2023-06-22T09:37:11;8.07;;;6.60;;
21927;SDS011;11128;51.096;17.190;2023-06-22T09:42:13;8.00;;;6.47;;
21927;SDS011;11128;51.096;17.190;2023-06-22T09:47:14;7.45;;;6.13;;
21927;SDS011;11128;51.096;17.190;2023-06-22T09:52:15;6.60;;;5.90;;
21927;SDS011;11128;51.096;17.190;2023-06-22T09:57:17;7.65;;;6.43;;
21927;SDS011;11128;51.096;17.190;2023-06-22T10:02:18;7.28;;;5.88;;
21927;SDS011;11128;51.096;17.190;2023-06-22T10:07:19;7.03;;;5.80;;
21927;SDS011;11128;51.096;17.190;2023-06-22T10:12:21;8.48;;;6.70;;
21927;SDS011;11128;51.096;17.190;2023-06-22T10:17:22;9.20;;;6.93;;
21927;SDS011;11128;51.096;17.190;2023-06-22T10:22:23;7.60;;;6.03;;
21927;SDS011;11128;51.096;17.190;2023-06-22T10:27:24;8.18;;;6.78;;
21927;SDS011;11128;51.096;17.190;2023-06-22T10:32:25;7.05;;;5.90;;
21927;SDS011;11128;51.096;17.190;2023-06-22T10:37:28;7.65;;;6.15;;
21927;SDS011;11128;51.096;17.190;2023-06-22T10:42:29;6.80;;;5.65;;
21927;SDS011;11128;51.096;17.190;2023-06-22T10:47:31;7.30;;;5.60;;
21927;SDS011;11128;51.096;17.190;2023-06-22T10:52:32;8.18;;;5.68;;
21927;SDS011;11128;51.096;17.190;2023-06-22T10:57:33;6.45;;;5.53;;
21927;SDS011;11128;51.096;17.190;2023-06-22T11:02:35;8.35;;;5.68;;
21927;SDS011;11128;51.096;17.190;2023-06-22T11:07:36;7.95;;;5.88;;
21927;SDS011;11128;51.096;17.190;2023-06-22T11:12:39;6.93;;;5.53;;
21927;SDS011;11128;51.096;17.190;2023-06-22T11:17:40;6.60;;;5.80;;
21927;SDS011;11128;51.096;17.190;2023-06-22T11:22:42;5.97;;;5.10;;
21927;SDS011;11128;51.096;17.190;2023-06-22T11:27:43;7.32;;;5.72;;
21927;SDS011;11128;51.096;17.190;2023-06-22T11:32:45;7.10;;;5.50;;
21927;SDS011;11128;51.096;17.190;2023-06-22T11:37:47;7.15;;;5.28;;
21927;SDS011;11128;51.096;17.190;2023-06-22T11:42:48;6.78;;;5.30;;
21927;SDS011;11128;51.096;17.190;2023-06-22T11:47:50;5.57;;;4.78;;
21927;SDS011;11128;51.096;17.190;2023-06-22T11:52:51;5.18;;;4.68;;
21927;SDS011;11128;51.096;17.190;2023-06-22T11:57:57;6.15;;;5.10;;
21927;SDS011;11128;51.096;17.190;2023-06-22T12:03:04;5.85;;;5.18;;
21927;SDS011;11128;51.096;17.190;2023-06-22T12:08:05;5.28;;;4.60;;
21927;SDS011;11128;51.096;17.190;2023-06-22T12:13:07;6.53;;;4.93;;
21927;SDS011;11128;51.096;17.190;2023-06-22T12:18:08;6.22;;;4.78;;
21927;SDS011;11128;51.096;17.190;2023-06-22T12:23:09;6.18;;;5.18;;
21927;SDS011;11128;51.096;17.190;2023-06-22T12:28:11;6.97;;;4.75;;
21927;SDS011;11128;51.096;17.190;2023-06-22T12:33:12;5.57;;;4.80;;
21927;SDS011;11128;51.096;17.190;2023-06-22T12:38:13;5.97;;;5.25;;
21927;SDS011;11128;51.096;17.190;2023-06-22T12:43:15;7.15;;;5.10;;
21927;SDS011;11128;51.096;17.190;2023-06-22T12:48:16;7.20;;;5.10;;
21927;SDS011;11128;51.096;17.190;2023-06-22T12:53:17;5.35;;;4.75;;
21927;SDS011;11128;51.096;17.190;2023-06-22T12:58:19;5.50;;;4.85;;
21927;SDS011;11128;51.096;17.190;2023-06-22T13:03:20;6.32;;;5.38;;
21927;SDS011;11128;51.096;17.190;2023-06-22T13:08:22;5.97;;;4.95;;
21927;SDS011;11128;51.096;17.190;2023-06-22T13:13:25;6.85;;;5.30;;
21927;SDS011;11128;51.096;17.190;2023-06-22T13:18:28;5.93;;;5.03;;
21927;SDS011;11128;51.096;17.190;2023-06-22T13:23:29;6.63;;;4.88;;
21927;SDS011;11128;51.096;17.190;2023-06-22T13:28:31;6.55;;;4.60;;
21927;SDS011;11128;51.096;17.190;2023-06-22T13:33:32;5.20;;;4.43;;
21927;SDS011;11128;51.096;17.190;2023-06-22T13:38:35;5.00;;;4.20;;
21927;SDS011;11128;51.096;17.190;2023-06-22T13:43:39;4.88;;;4.30;;
21927;SDS011;11128;51.096;17.190;2023-06-22T13:48:40;9.20;;;5.55;;
21927;SDS011;11128;51.096;17.190;2023-06-22T13:53:41;5.78;;;4.57;;
21927;SDS011;11128;51.096;17.190;2023-06-22T13:58:43;5.20;;;4.20;;
21927;SDS011;11128;51.096;17.190;2023-06-22T14:03:44;4.93;;;4.10;;
21927;SDS011;11128;51.096;17.190;2023-06-22T14:08:47;4.88;;;3.80;;
21927;SDS011;11128;51.096;17.190;2023-06-22T14:13:48;4.43;;;3.80;;
21927;SDS011;11128;51.096;17.190;2023-06-22T14:18:50;5.00;;;3.65;;
21927;SDS011;11128;51.096;17.190;2023-06-22T14:23:51;4.05;;;3.65;;
21927;SDS011;11128;51.096;17.190;2023-06-22T14:28:52;4.10;;;3.63;;
21927;SDS011;11128;51.096;17.190;2023-06-22T14:33:54;5.63;;;4.10;;
21927;SDS011;11128;51.096;17.190;2023-06-22T14:38:55;5.28;;;4.32;;
21927;SDS011;11128;51.096;17.190;2023-06-22T14:43:57;6.30;;;4.43;;
21927;SDS011;11128;51.096;17.190;2023-06-22T14:48:58;4.75;;;3.72;;
21927;SDS011;11128;51.096;17.190;2023-06-22T14:53:59;5.50;;;4.47;;
21927;SDS011;11128;51.096;17.190;2023-06-22T14:59:00;6.43;;;4.38;;
21927;SDS011;11128;51.096;17.190;2023-06-22T15:04:02;5.18;;;4.28;;
21927;SDS011;11128;51.096;17.190;2023-06-22T15:09:03;4.43;;;3.50;;
21927;SDS011;11128;51.096;17.190;2023-06-22T15:14:04;5.13;;;4.43;;
21927;SDS011;11128;51.096;17.190;2023-06-22T15:19:06;7.57;;;4.88;;
21927;SDS011;11128;51.096;17.190;2023-06-22T15:24:07;5.65;;;4.20;;
21927;SDS011;11128;51.096;17.190;2023-06-22T15:29:08;6.80;;;4.90;;
21927;SDS011;11128;51.096;17.190;2023-06-22T15:34:10;5.53;;;4.60;;
21927;SDS011;11128;51.096;17.190;2023-06-22T15:39:13;6.05;;;4.55;;
21927;SDS011;11128;51.096;17.190;2023-06-22T15:44:15;6.03;;;4.72;;
21927;SDS011;11128;51.096;17.190;2023-06-22T15:49:16;7.53;;;4.97;;
21927;SDS011;11128;51.096;17.190;2023-06-22T15:54:18;5.63;;;4.40;;
21927;SDS011;11128;51.096;17.190;2023-06-22T15:59:21;6.55;;;4.82;;
21927;SDS011;11128;51.096;17.190;2023-06-22T16:04:25;5.88;;;4.43;;
21927;SDS011;11128;51.096;17.190;2023-06-22T16:09:26;17.48;;;5.43;;
21927;SDS011;11128;51.096;17.190;2023-06-22T16:14:28;6.40;;;4.72;;
21927;SDS011;11128;51.096;17.190;2023-06-22T16:19:29;8.18;;;4.53;;
21927;SDS011;11128;51.096;17.190;2023-06-22T16:24:30;7.50;;;5.00;;
21927;SDS011;11128;51.096;17.190;2023-06-22T16:29:32;5.25;;;4.10;;
21927;SDS011;11128;51.096;17.190;2023-06-22T16:34:33;7.22;;;4.90;;
21927;SDS011;11128;51.096;17.190;2023-06-22T16:39:34;5.78;;;4.40;;
21927;SDS011;11128;51.096;17.190;2023-06-22T16:44:35;6.05;;;4.47;;
21927;SDS011;11128;51.096;17.190;2023-06-22T16:49:37;6.93;;;5.15;;
21927;SDS011;11128;51.096;17.190;2023-06-22T16:54:39;6.20;;;4.53;;
21927;SDS011;11128;51.096;17.190;2023-06-22T16:59:41;6.10;;;4.85;;
21927;SDS011;11128;51.096;17.190;2023-06-22T17:04:42;7.75;;;5.05;;
21927;SDS011;11128;51.096;17.190;2023-06-22T17:09:46;7.18;;;4.95;;
21927;SDS011;11128;51.096;17.190;2023-06-22T17:14:49;6.72;;;4.88;;
21927;SDS011;11128;51.096;17.190;2023-06-22T17:19:53;5.43;;;4.15;;
21927;SDS011;11128;51.096;17.190;2023-06-22T17:24:54;6.57;;;5.20;;
21927;SDS011;11128;51.096;17.190;2023-06-22T17:30:08;7.43;;;5.43;;
21927;SDS011;11128;51.096;17.190;2023-06-22T17:35:10;11.45;;;7.80;;
21927;SDS011;11128;51.096;17.190;2023-06-22T17:40:18;6.47;;;4.93;;
21927;SDS011;11128;51.096;17.190;2023-06-22T17:45:22;6.65;;;5.40;;
21927;SDS011;11128;51.096;17.190;2023-06-22T17:50:24;9.65;;;5.75;;
21927;SDS011;11128;51.096;17.190;2023-06-22T17:55:25;9.70;;;5.35;;
21927;SDS011;11128;51.096;17.190;2023-06-22T18:00:27;5.85;;;4.78;;
21927;SDS011;11128;51.096;17.190;2023-06-22T18:10:35;5.85;;;4.88;;
21927;SDS011;11128;51.096;17.190;2023-06-22T18:15:38;5.75;;;4.25;;
21927;SDS011;11128;51.096;17.190;2023-06-22T18:20:40;4.40;;;3.60;;
21927;SDS011;11128;51.096;17.190;2023-06-22T18:25:42;5.75;;;3.70;;
21927;SDS011;11128;51.096;17.190;2023-06-22T18:30:45;5.45;;;3.95;;
21927;SDS011;11128;51.096;17.190;2023-06-22T18:35:48;6.80;;;4.30;;
21927;SDS011;11128;51.096;17.190;2023-06-22T18:40:52;5.18;;;3.75;;
21927;SDS011;11128;51.096;17.190;2023-06-22T18:45:54;5.07;;;3.42;;
21927;SDS011;11128;51.096;17.190;2023-06-22T18:51:09;5.32;;;3.53;;
21927;SDS011;11128;51.096;17.190;2023-06-22T18:56:13;5.03;;;2.95;;
21927;SDS011;11128;51.096;17.190;2023-06-22T19:01:22;3.22;;;2.53;;
21927;SDS011;11128;51.096;17.190;2023-06-22T19:11:51;5.57;;;3.03;;
21927;SDS011;11128;51.096;17.190;2023-06-22T19:17:19;2.97;;;2.60;;
21927;SDS011;11128;51.096;17.190;2023-06-22T19:22:23;4.47;;;2.90;;
21927;SDS011;11128;51.096;17.190;2023-06-22T19:27:45;4.72;;;3.20;;
21927;SDS011;11128;51.096;17.190;2023-06-22T19:32:51;4.38;;;2.95;;
21927;SDS011;11128;51.096;17.190;2023-06-22T19:37:53;4.35;;;3.35;;
21927;SDS011;11128;51.096;17.190;2023-06-22T19:42:55;6.03;;;3.33;;
21927;SDS011;11128;51.096;17.190;2023-06-22T19:47:56;4.40;;;2.95;;
21927;SDS011;11128;51.096;17.190;2023-06-22T19:52:58;5.28;;;2.78;;
21927;SDS011;11128;51.096;17.190;2023-06-22T19:58:00;5.07;;;3.17;;
21927;SDS011;11128;51.096;17.190;2023-06-22T20:03:01;3.65;;;2.95;;
21927;SDS011;11128;51.096;17.190;2023-06-22T20:08:03;4.53;;;2.97;;
21927;SDS011;11128;51.096;17.190;2023-06-22T20:13:09;3.55;;;2.90;;
21927;SDS011;11128;51.096;17.190;2023-06-22T20:18:12;4.20;;;2.92;;
21927;SDS011;11128;51.096;17.190;2023-06-22T20:23:18;6.53;;;3.25;;
21927;SDS011;11128;51.096;17.190;2023-06-22T20:28:21;5.32;;;3.30;;
21927;SDS011;11128;51.096;17.190;2023-06-22T20:33:27;5.50;;;3.10;;
21927;SDS011;11128;51.096;17.190;2023-06-22T20:38:29;4.13;;;2.75;;
21927;SDS011;11128;51.096;17.190;2023-06-22T20:43:33;4.13;;;3.15;;
21927;SDS011;11128;51.096;17.190;2023-06-22T20:48:34;4.15;;;2.80;;
21927;SDS011;11128;51.096;17.190;2023-06-22T20:53:36;5.28;;;3.30;;
21927;SDS011;11128;51.096;17.190;2023-06-22T20:58:37;5.70;;;3.22;;
21927;SDS011;11128;51.096;17.190;2023-06-22T21:03:39;3.95;;;2.90;;
21927;SDS011;11128;51.096;17.190;2023-06-22T21:08:40;4.30;;;2.95;;
21927;SDS011;11128;51.096;17.190;2023-06-22T21:13:42;4.05;;;3.05;;
21927;SDS011;11128;51.096;17.190;2023-06-22T21:18:43;5.82;;;3.28;;
21927;SDS011;11128;51.096;17.190;2023-06-22T21:23:45;5.28;;;3.20;;
21927;SDS011;11128;51.096;17.190;2023-06-22T21:28:46;4.63;;;3.25;;
21927;SDS011;11128;51.096;17.190;2023-06-22T21:33:48;4.78;;;3.53;;
21927;SDS011;11128;51.096;17.190;2023-06-22T21:38:49;6.68;;;3.60;;
21927;SDS011;11128;51.096;17.190;2023-06-22T21:43:51;3.38;;;2.83;;
21927;SDS011;11128;51.096;17.190;2023-06-22T21:48:52;5.57;;;3.28;;
21927;SDS011;11128;51.096;17.190;2023-06-22T21:53:53;5.80;;;3.28;;
21927;SDS011;11128;51.096;17.190;2023-06-22T21:58:56;5.18;;;2.97;;
21927;SDS011;11128;51.096;17.190;2023-06-22T22:03:58;5.50;;;3.20;;
21927;SDS011;11128;51.096;17.190;2023-06-22T22:09:02;4.13;;;2.85;;
21927;SDS011;11128;51.096;17.190;2023-06-22T22:14:05;5.35;;;3.05;;
21927;SDS011;11128;51.096;17.190;2023-06-22T22:19:09;5.15;;;3.67;;
21927;SDS011;11128;51.096;17.190;2023-06-22T22:24:10;4.38;;;3.00;;
21927;SDS011;11128;51.096;17.190;2023-06-22T22:29:12;4.32;;;3.22;;
21927;SDS011;11128;51.096;17.190;2023-06-22T22:34:13;3.63;;;2.67;;
21927;SDS011;11128;51.096;17.190;2023-06-22T22:39:28;4.95;;;3.10;;
21927;SDS011;11128;51.096;17.190;2023-06-22T22:44:31;4.95;;;3.05;;
21927;SDS011;11128;51.096;17.190;2023-06-22T22:49:33;5.78;;;2.75;;
21927;SDS011;11128;51.096;17.190;2023-06-22T22:54:34;4.28;;;2.60;;
21927;SDS011;11128;51.096;17.190;2023-06-22T22:59:35;4.10;;;2.97;;
21927;SDS011;11128;51.096;17.190;2023-06-22T23:04:38;4.78;;;2.80;;
21927;SDS011;11128;51.096;17.190;2023-06-22T23:09:40;5.03;;;2.53;;
21927;SDS011;11128;51.096;17.190;2023-06-22T23:14:42;3.78;;;2.90;;
21927;SDS011;11128;51.096;17.190;2023-06-22T23:19:46;4.07;;;2.95;;
21927;SDS011;11128;51.096;17.190;2023-06-22T23:24:47;3.97;;;2.63;;
21927;SDS011;11128;51.096;17.190;2023-06-22T23:29:49;3.75;;;2.50;;
21927;SDS011;11128;51.096;17.190;2023-06-22T23:34:52;3.65;;;2.63;;
21927;SDS011;11128;51.096;17.190;2023-06-22T23:39:53;4.22;;;2.67;;
21927;SDS011;11128;51.096;17.190;2023-06-22T23:44:54;5.68;;;3.13;;
21927;SDS011;11128;51.096;17.190;2023-06-22T23:49:57;3.90;;;2.40;;
21927;SDS011;11128;51.096;17.190;2023-06-22T23:54:58;4.03;;;2.80;;
